createdAt,value
2022-10-14T00:03:02.188Z,17.20
2022-10-14T00:10:38.481Z,16.45
2022-10-14T00:18:13.508Z,15.27
2022-10-14T00:25:47.311Z,17.95
2022-10-14T00:33:22.343Z,15.48
2022-10-14T00:40:56.909Z,15.85
2022-10-14T00:48:31.877Z,16.27
2022-10-14T01:03:42.393Z,14.48
2022-10-14T01:11:23.259Z,15.68
2022-10-14T01:19:14.540Z,14.57
2022-10-14T01:27:05.437Z,15.07
2022-10-14T01:34:45.725Z,15.13
2022-10-14T01:42:23.967Z,15.50
2022-10-14T01:50:04.217Z,15.18
2022-10-14T01:57:40.754Z,16.08
2022-10-14T02:05:21.031Z,15.52
2022-10-14T02:13:06.390Z,16.13
2022-10-14T02:20:47.054Z,15.32
2022-10-14T02:28:24.210Z,14.88
2022-10-14T02:35:59.416Z,14.93
2022-10-14T02:43:33.462Z,17.38
2022-10-14T02:51:08.484Z,14.70
2022-10-14T02:58:42.092Z,14.25
2022-10-14T03:06:17.098Z,15.20
2022-10-14T03:13:51.128Z,16.27
2022-10-14T03:21:26.092Z,15.27
2022-10-14T03:28:59.979Z,15.30
2022-10-14T03:36:35.275Z,14.37
2022-10-14T03:44:08.922Z,15.63
2022-10-14T03:51:44.044Z,14.15
2022-10-14T03:59:17.896Z,14.63
2022-10-14T04:06:54.067Z,15.52
2022-10-14T04:14:27.931Z,15.07
2022-10-14T04:22:03.045Z,15.97
2022-10-14T04:29:36.757Z,14.00
2022-10-14T04:37:11.816Z,13.35
2022-10-14T04:44:45.712Z,14.50
2022-10-14T04:52:21.273Z,14.57
2022-10-14T04:59:55.149Z,13.88
2022-10-14T05:07:30.906Z,13.63
2022-10-14T05:15:06.359Z,14.63
2022-10-14T05:22:41.678Z,13.77
2022-10-14T05:30:15.520Z,13.07
2022-10-14T05:37:57.706Z,15.20
2022-10-14T05:45:34.628Z,13.50
2022-10-14T05:53:10.396Z,14.35
2022-10-14T06:00:44.123Z,12.85
2022-10-14T06:08:19.490Z,13.02
2022-10-14T06:15:53.362Z,14.02
2022-10-14T06:23:28.837Z,14.43
2022-10-14T06:31:02.542Z,13.07
2022-10-14T06:38:37.691Z,13.93
2022-10-14T06:46:11.611Z,14.27
2022-10-14T06:53:46.610Z,14.77
2022-10-14T07:01:20.542Z,15.93
2022-10-14T07:08:55.870Z,16.33
2022-10-14T07:16:29.551Z,15.73
2022-10-14T07:24:04.965Z,15.13
2022-10-14T07:31:38.704Z,17.48
2022-10-14T07:39:14.219Z,15.38
2022-10-14T07:46:48.506Z,18.33
2022-10-14T07:54:26.241Z,19.93
2022-10-14T08:02:00.133Z,22.13
2022-10-14T08:09:37.951Z,19.45
2022-10-14T08:17:11.738Z,17.90
2022-10-14T08:24:47.071Z,19.30
2022-10-14T08:32:21.011Z,17.05
2022-10-14T08:39:56.472Z,20.13
2022-10-14T08:47:37.865Z,19.88
2022-10-14T08:55:24.227Z,18.80
2022-10-14T09:03:00.960Z,17.73
2022-10-14T09:10:40.608Z,22.02
2022-10-14T09:18:24.629Z,21.67
2022-10-14T09:26:04.270Z,18.45
2022-10-14T09:33:42.322Z,15.30
2022-10-14T09:41:20.834Z,14.57
2022-10-14T09:48:55.199Z,14.85
2022-10-14T09:56:37.554Z,15.53
2022-10-14T10:04:27.383Z,12.48
2022-10-14T10:12:23.951Z,16.83
2022-10-14T10:20:17.821Z,15.52
2022-10-14T10:27:54.876Z,16.40
2022-10-14T10:35:31.295Z,15.48
2022-10-14T10:43:33.817Z,13.65
2022-10-14T10:51:14.381Z,11.68
2022-10-14T10:59:06.569Z,13.90
2022-10-14T11:07:08.423Z,11.43
2022-10-14T11:15:06.357Z,12.93
2022-10-14T11:22:55.998Z,11.77
2022-10-14T11:30:44.074Z,13.07
2022-10-14T11:38:35.980Z,10.80
2022-10-14T11:46:13.711Z,10.60
2022-10-14T11:53:58.474Z,9.85
2022-10-14T12:01:41.679Z,9.80
2022-10-14T12:09:22.327Z,7.97
2022-10-14T12:17:01.039Z,9.27
2022-10-14T12:24:40.296Z,9.70
2022-10-14T12:32:24.286Z,8.88
2022-10-14T12:40:24.529Z,9.10
2022-10-14T12:48:07.316Z,8.75
2022-10-14T12:55:50.795Z,7.65
2022-10-14T13:03:29.373Z,8.35
2022-10-14T13:11:14.634Z,7.68
2022-10-14T13:18:54.745Z,6.07
2022-10-14T13:26:38.000Z,6.05
2022-10-14T13:34:23.497Z,6.32
2022-10-14T13:41:58.631Z,6.15
2022-10-14T13:49:37.816Z,6.78
2022-10-14T13:57:53.709Z,6.18
2022-10-14T14:05:17.017Z,5.78
2022-10-14T14:12:51.812Z,6.00
2022-10-14T14:20:29.768Z,6.25
2022-10-14T14:28:06.971Z,5.28
2022-10-14T14:35:44.931Z,5.20
2022-10-14T14:43:19.820Z,4.88
2022-10-14T14:50:55.341Z,4.82
2022-10-14T14:58:33.182Z,4.18
2022-10-14T15:06:08.447Z,4.43
2022-10-14T15:13:50.425Z,4.95
2022-10-14T15:21:25.491Z,5.00
2022-10-14T15:36:41.981Z,3.97
2022-10-14T15:44:17.351Z,3.53
2022-10-14T15:51:52.796Z,3.55
2022-10-14T15:59:26.914Z,3.40
2022-10-14T16:07:01.951Z,3.80
2022-10-14T16:22:11.604Z,4.78
2022-10-14T16:29:45.210Z,5.65
2022-10-14T16:37:20.532Z,5.00
2022-10-14T16:44:54.798Z,5.65
2022-10-14T16:52:29.912Z,5.78
2022-10-14T17:07:38.698Z,5.93
2022-10-14T17:22:48.511Z,5.88
2022-10-14T17:30:22.178Z,6.07
2022-10-14T17:37:57.115Z,5.68
2022-10-14T17:45:31.399Z,6.18
2022-10-14T17:53:06.760Z,6.17
2022-10-14T18:00:40.437Z,5.97
2022-10-14T18:08:15.619Z,5.80
2022-10-14T18:15:49.426Z,6.63
2022-10-14T18:23:24.798Z,6.68
2022-10-14T18:30:58.766Z,6.50
2022-10-14T18:38:34.832Z,7.15
2022-10-14T18:46:13.272Z,6.60
2022-10-14T18:53:50.302Z,7.65
2022-10-14T19:01:24.242Z,7.57
2022-10-14T19:09:01.356Z,7.22
2022-10-14T19:16:36.877Z,7.57
2022-10-14T19:24:13.718Z,7.90
2022-10-14T19:31:55.078Z,9.20
2022-10-14T19:39:31.046Z,8.70
2022-10-14T19:47:04.804Z,8.25
2022-10-14T19:54:40.442Z,8.35
2022-10-14T20:02:14.587Z,7.95
2022-10-14T20:09:49.698Z,7.90
2022-10-14T20:24:58.542Z,6.93
2022-10-14T20:32:32.343Z,6.38
2022-10-14T20:40:09.108Z,6.57
2022-10-14T20:47:42.805Z,6.28
2022-10-14T20:55:18.960Z,6.07
2022-10-14T21:02:52.628Z,7.45
2022-10-14T21:10:28.629Z,7.72
2022-10-14T21:18:02.224Z,7.90
2022-10-14T21:25:37.226Z,8.00
2022-10-14T21:40:45.715Z,9.38
2022-10-14T21:55:54.561Z,9.65
2022-10-14T22:03:28.341Z,11.15
2022-10-14T22:11:03.591Z,13.52
2022-10-14T22:18:37.518Z,12.20
2022-10-14T22:26:18.101Z,12.43
2022-10-14T22:33:51.963Z,11.73
2022-10-14T22:41:32.320Z,13.82
2022-10-14T22:49:07.875Z,12.55
2022-10-14T22:56:43.729Z,12.23
2022-10-14T23:04:18.085Z,12.98
2022-10-14T23:11:53.644Z,14.13
2022-10-14T23:19:27.267Z,12.85
2022-10-14T23:27:02.410Z,13.00
2022-10-14T23:34:36.031Z,14.75
2022-10-14T23:42:11.075Z,15.70
2022-10-14T23:57:20.534Z,14.43
